Prentice, Wisconsin
Current Conditions -  °F | °C
As of 8:15 PM on Friday 28 Nov 2014 (Local Time) from KPBH Reporting Station
Broken Clouds Broken Clouds  
Wind Chill:   Ceiling: 8500
Heat Index: 15°   Visibility: 10mi
Dew Point: 12°   Wind: 7mph
Humidity: 88%   Direction: 130°SE
Pressure: 29.82"   Gusts: NA
Location:  45.55°N, 90.29°W
Report Text: KPBH 290215Z AUTO 13006KT 10SM SCT020 SCT045 BKN085 M09/M11 A2982 RMK AO2 T10951112
Loading
Personal Weather Stations






























Interactive Weather Map New forecast layout! Learn more

10-Day Weather Forecast

Advertisements
Track Severe Weather on mobile